createdAt,value
2022-08-01T00:00:10.758Z,99007.25
2022-08-01T00:01:16.862Z,98994.41
2022-08-01T00:02:20.824Z,99008.41
2022-08-01T00:03:24.754Z,98993.94
2022-08-01T00:04:28.540Z,99005.00
2022-08-01T00:05:32.605Z,99011.09
2022-08-01T00:06:36.422Z,99007.56
2022-08-01T00:07:40.460Z,98998.97
2022-08-01T00:08:44.075Z,99009.41
2022-08-01T00:09:47.977Z,99005.69
2022-08-01T00:10:52.010Z,99007.69
2022-08-01T00:11:59.778Z,99004.03
2022-08-01T00:13:04.175Z,99009.41
2022-08-01T00:14:08.037Z,99000.16
2022-08-01T00:15:17.024Z,98993.59
2022-08-01T00:16:23.895Z,99004.19
2022-08-01T00:17:27.935Z,98997.94
2022-08-01T00:18:31.884Z,98995.25
2022-08-01T00:19:36.213Z,99000.66
2022-08-01T00:20:40.287Z,99006.88
2022-08-01T00:21:51.964Z,99001.47
2022-08-01T00:22:56.282Z,99002.50
2022-08-01T00:24:00.459Z,99003.34
2022-08-01T00:25:06.617Z,98980.97
2022-08-01T00:26:10.634Z,99003.69
2022-08-01T00:27:14.855Z,99007.03
2022-08-01T00:28:18.875Z,99000.81
2022-08-01T00:30:10.841Z,99013.63
2022-08-01T00:30:46.725Z,99009.38
2022-08-01T00:31:50.831Z,99005.69
2022-08-01T00:32:54.696Z,99003.00
2022-08-01T00:33:58.492Z,99006.69
2022-08-01T00:35:02.600Z,98998.63
2022-08-01T00:36:06.685Z,98997.28
2022-08-01T00:37:14.033Z,99000.66
2022-08-01T00:38:19.979Z,98999.97
2022-08-01T00:39:23.941Z,98999.47
2022-08-01T00:40:27.931Z,98999.28
2022-08-01T00:41:32.029Z,99002.81
2022-08-01T00:42:40.236Z,99002.81
2022-08-01T00:43:46.884Z,99003.50
2022-08-01T00:44:50.702Z,99001.00
2022-08-01T00:45:54.471Z,99009.91
2022-08-01T00:46:58.227Z,98997.13
2022-08-01T00:48:02.231Z,99010.06
2022-08-01T00:49:07.472Z,99010.88
2022-08-01T00:50:15.352Z,99006.38
2022-08-01T00:51:19.609Z,99014.44
2022-08-01T00:52:23.627Z,99011.91
2022-08-01T00:53:27.968Z,99009.06
2022-08-01T00:54:52.549Z,99006.38
2022-08-01T00:55:57.340Z,99005.50
2022-08-01T00:57:01.423Z,98999.63
2022-08-01T00:58:06.674Z,99005.00
2022-08-01T00:59:14.103Z,99002.50
2022-08-01T01:00:18.739Z,99009.38
2022-08-01T01:01:39.252Z,99008.38
2022-08-01T01:02:44.973Z,99008.38
2022-08-01T01:03:59.138Z,99014.09
2022-08-01T01:05:04.986Z,99010.75
2022-08-01T01:06:35.368Z,99013.56
2022-08-01T01:08:09.637Z,99014.59
2022-08-01T01:09:46.310Z,99015.94
2022-08-01T01:11:02.551Z,99011.72
2022-08-01T01:12:39.113Z,99014.41
2022-08-01T01:13:54.201Z,99017.94
2022-08-01T01:15:32.421Z,99011.06
2022-08-01T01:16:42.276Z,99019.13
2022-08-01T01:18:08.455Z,99009.19
2022-08-01T01:19:22.189Z,99008.00
2022-08-01T01:20:35.312Z,99023.00
2022-08-01T01:22:18.988Z,99020.81
2022-08-01T01:24:18.729Z,99014.75
2022-08-01T01:25:56.328Z,99019.13
2022-08-01T01:27:25.509Z,99029.03
2022-08-01T01:28:51.700Z,99023.13
2022-08-01T01:30:01.176Z,99021.97
2022-08-01T01:31:12.056Z,99028.03
2022-08-01T01:32:37.390Z,99008.16
2022-08-01T01:33:45.357Z,99021.81
2022-08-01T01:34:55.464Z,99026.00
2022-08-01T01:36:11.677Z,99014.56
2022-08-01T01:37:21.890Z,99018.09
2022-08-01T01:38:35.898Z,99030.53
2022-08-01T01:39:45.330Z,99020.63
2022-08-01T01:41:00.311Z,99024.84
2022-08-01T01:42:08.194Z,99021.47
2022-08-01T01:43:14.386Z,99024.31
2022-08-01T01:44:20.055Z,99022.63
2022-08-01T01:45:27.803Z,99025.81
2022-08-01T01:46:34.012Z,99021.47
2022-08-01T01:47:41.122Z,99030.38
2022-08-01T01:48:47.676Z,99010.03
2022-08-01T01:49:54.299Z,99026.69
2022-08-01T01:50:59.506Z,99007.81
2022-08-01T01:52:05.649Z,99021.16
2022-08-01T01:53:15.238Z,99023.31
2022-08-01T01:54:23.253Z,99023.84
2022-08-01T01:55:28.415Z,99022.81
2022-08-01T01:56:34.010Z,99028.19
2022-08-01T01:57:42.420Z,99019.47
2022-08-01T01:58:52.467Z,99023.84
2022-08-01T02:00:00.566Z,99007.88
2022-08-01T02:01:05.624Z,99016.91
2022-08-01T02:02:20.413Z,99022.28
2022-08-01T02:03:27.834Z,99021.47
2022-08-01T02:04:34.081Z,99015.94
2022-08-01T02:05:40.913Z,99018.63
2022-08-01T02:06:48.125Z,99011.53
2022-08-01T02:07:59.633Z,99019.28
2022-08-01T02:09:04.282Z,99015.75
2022-08-01T02:10:11.494Z,99008.53
2022-08-01T02:11:22.524Z,99010.38
2022-08-01T02:12:27.419Z,99011.06
2022-08-01T02:13:36.607Z,99005.84
2022-08-01T02:14:43.176Z,99011.06
2022-08-01T02:15:59.537Z,99008.34
2022-08-01T02:17:07.841Z,99011.06
2022-08-01T02:18:13.875Z,99011.06
2022-08-01T02:19:21.745Z,99005.00
2022-08-01T02:20:29.797Z,98998.09
2022-08-01T02:22:02.047Z,99009.53
2022-08-01T02:23:14.419Z,99015.75
2022-08-01T02:24:36.403Z,99007.31
2022-08-01T02:26:09.137Z,99011.34
2022-08-01T02:27:22.022Z,99010.38
2022-08-01T02:28:46.880Z,99013.72
2022-08-01T02:30:06.068Z,99016.72
2022-08-01T02:31:17.950Z,99011.19
2022-08-01T02:33:01.764Z,99015.41
2022-08-01T02:34:14.209Z,99006.66
2022-08-01T02:35:31.976Z,99017.41
2022-08-01T02:36:38.459Z,99016.72
2022-08-01T02:37:47.050Z,99016.06
2022-08-01T02:38:52.739Z,99022.09
2022-08-01T02:39:57.739Z,99017.72
2022-08-01T02:41:14.225Z,99023.94
2022-08-01T02:42:20.913Z,99033.88
2022-08-01T02:43:30.253Z,99033.19
2022-08-01T02:44:40.880Z,99010.81
2022-08-01T02:46:01.738Z,99022.28
2022-08-01T02:47:06.059Z,99026.81
2022-08-01T02:48:13.735Z,99030.69
2022-08-01T02:49:22.573Z,99027.16
2022-08-01T02:50:29.664Z,99023.75
2022-08-01T02:51:37.218Z,99035.34
2022-08-01T02:52:45.553Z,99034.50
2022-08-01T02:53:53.206Z,99018.53
2022-08-01T02:54:59.751Z,99034.84
2022-08-01T02:56:07.572Z,99030.50
2022-08-01T02:57:14.156Z,99006.38
2022-08-01T02:58:21.536Z,99022.91
2022-08-01T02:59:38.345Z,99035.88
2022-08-01T03:00:48.512Z,99029.81
2022-08-01T03:01:56.683Z,99042.09
2022-08-01T03:03:04.690Z,99027.13
2022-08-01T03:04:09.776Z,99036.19
2022-08-01T03:05:18.961Z,99034.19
2022-08-01T03:06:23.798Z,99038.72
2022-08-01T03:07:34.330Z,99042.25
2022-08-01T03:08:40.736Z,99040.25
2022-08-01T03:09:49.010Z,99041.56
2022-08-01T03:10:56.494Z,99042.56
2022-08-01T03:12:05.692Z,99034.66
2022-08-01T03:13:13.123Z,99039.22
2022-08-01T03:14:21.557Z,99041.22
2022-08-01T03:15:31.759Z,99050.81
2022-08-01T03:16:40.008Z,99042.22
2022-08-01T03:17:48.172Z,99040.22
2022-08-01T03:18:57.359Z,99020.84
2022-08-01T03:20:06.029Z,99039.69
2022-08-01T03:21:13.184Z,99039.84
2022-08-01T03:22:18.412Z,99038.50
2022-08-01T03:23:29.149Z,99043.19
2022-08-01T03:24:50.979Z,99043.19
2022-08-01T03:25:56.922Z,99037.09
2022-08-01T03:27:01.329Z,99022.25
2022-08-01T03:28:09.288Z,99037.91
2022-08-01T03:29:21.109Z,99030.31
2022-08-01T03:30:27.993Z,99033.00
2022-08-01T03:31:32.895Z,99033.00
2022-08-01T03:32:36.885Z,99032.16
2022-08-01T03:33:41.240Z,99034.03
2022-08-01T03:34:45.315Z,99031.34
2022-08-01T03:35:56.143Z,99027.44
2022-08-01T03:37:28.268Z,99039.56
2022-08-01T03:38:37.243Z,99036.72
2022-08-01T03:39:59.463Z,99032.81
2022-08-01T03:41:25.103Z,99031.97
2022-08-01T03:42:53.658Z,99036.34
2022-08-01T03:44:06.534Z,99038.03
2022-08-01T03:45:17.129Z,99035.66
2022-08-01T03:46:30.930Z,99037.69
2022-08-01T03:47:43.522Z,99040.88
2022-08-01T03:48:56.682Z,99040.88
2022-08-01T03:50:03.095Z,99049.78
2022-08-01T03:51:10.272Z,99046.25
2022-08-01T03:52:16.357Z,99043.72
2022-08-01T03:53:27.232Z,99056.16
2022-08-01T03:54:36.040Z,99048.09
2022-08-01T03:55:43.599Z,99054.47
2022-08-01T03:56:51.132Z,99057.16
2022-08-01T03:57:56.854Z,99053.81
2022-08-01T03:59:04.446Z,99054.81
2022-08-01T04:00:10.356Z,99062.88
2022-08-01T04:01:16.247Z,99058.34
2022-08-01T04:02:22.861Z,99060.84
2022-08-01T04:03:28.598Z,99055.47
2022-08-01T04:04:32.747Z,99054.31
2022-08-01T04:05:36.903Z,99055.31
2022-08-01T04:06:41.934Z,99051.31
2022-08-01T04:07:57.551Z,99061.22
2022-08-01T04:09:01.711Z,99052.84
2022-08-01T04:10:07.775Z,99058.03
2022-08-01T04:11:12.009Z,99057.72
2022-08-01T04:12:15.854Z,99063.94
2022-08-01T04:13:19.666Z,99057.91
2022-08-01T04:14:23.608Z,99060.25
2022-08-01T04:15:27.467Z,99060.09
2022-08-01T04:16:31.285Z,99061.78
2022-08-01T04:17:35.100Z,99065.69
2022-08-01T04:18:38.843Z,99069.91
2022-08-01T04:19:43.766Z,99064.38
2022-08-01T04:20:50.333Z,99063.88
2022-08-01T04:21:54.354Z,99068.94
2022-08-01T04:22:58.394Z,99059.34
2022-08-01T04:24:16.164Z,99063.91
2022-08-01T04:25:37.605Z,99060.56
2022-08-01T04:26:45.843Z,99065.63
2022-08-01T04:27:54.006Z,99066.13
2022-08-01T04:28:58.310Z,99065.84
2022-08-01T04:30:02.728Z,99058.44
2022-08-01T04:31:13.458Z,99048.50
2022-08-01T04:32:21.673Z,99061.63
2022-08-01T04:33:29.421Z,99060.47
2022-08-01T04:34:34.934Z,99058.63
2022-08-01T04:36:02.018Z,99064.19
2022-08-01T04:37:13.290Z,99062.16
2022-08-01T04:38:28.587Z,99049.19
2022-08-01T04:39:50.304Z,99056.31
2022-08-01T04:40:57.616Z,99057.13
2022-08-01T04:42:05.025Z,99070.06
2022-08-01T04:43:09.716Z,99069.41
2022-08-01T04:44:14.943Z,99067.38
2022-08-01T04:45:19.780Z,99059.50
2022-08-01T04:46:24.812Z,99065.53
2022-08-01T04:47:30.550Z,99057.47
2022-08-01T04:48:37.285Z,99062.00
2022-08-01T04:49:48.636Z,99059.13
2022-08-01T04:50:53.064Z,99059.00
2022-08-01T04:52:01.461Z,99067.91
2022-08-01T04:53:06.264Z,99068.22
2022-08-01T04:54:10.016Z,99064.00
2022-08-01T04:55:14.040Z,99039.59
2022-08-01T04:56:18.852Z,99069.03
2022-08-01T04:57:22.606Z,99069.03
2022-08-01T04:58:26.428Z,99069.88
2022-08-01T04:59:41.346Z,99073.28
2022-08-01T05:00:45.555Z,99066.19
2022-08-01T05:01:52.496Z,99065.88
2022-08-01T05:02:56.426Z,99070.91
2022-08-01T05:04:00.215Z,99060.13
2022-08-01T05:05:07.284Z,99064.69
2022-08-01T05:06:11.410Z,99067.38
2022-08-01T05:07:16.861Z,99063.84
2022-08-01T05:08:20.749Z,99060.84
2022-08-01T05:09:27.124Z,99057.97
2022-08-01T05:10:35.822Z,99068.91
2022-08-01T05:11:39.907Z,99072.44
2022-08-01T05:12:43.765Z,99067.38
2022-08-01T05:13:47.494Z,99072.28
2022-08-01T05:14:52.276Z,99056.78
2022-08-01T05:15:55.902Z,99069.06
2022-08-01T05:17:05.451Z,99067.25
2022-08-01T05:18:10.270Z,99071.94
2022-08-01T05:19:14.256Z,99069.78
2022-08-01T05:20:18.209Z,99075.81
2022-08-01T05:21:22.255Z,99063.38
2022-08-01T05:22:26.982Z,99058.34
2022-08-01T05:23:42.235Z,99073.00
2022-08-01T05:24:49.723Z,99070.16
2022-08-01T05:25:57.627Z,99072.03
2022-08-01T05:27:03.342Z,99066.47
2022-08-01T05:28:07.524Z,99077.56
2022-08-01T05:29:12.811Z,99076.41
2022-08-01T05:30:17.234Z,99072.69
2022-08-01T05:31:21.015Z,99078.41
2022-08-01T05:32:24.949Z,99056.34
2022-08-01T05:33:29.317Z,99067.63
2022-08-01T05:34:33.461Z,99076.00
2022-08-01T05:35:47.887Z,99068.75
2022-08-01T05:36:56.917Z,99073.28
2022-08-01T05:38:01.841Z,99072.44
2022-08-01T05:39:06.319Z,99071.91
2022-08-01T05:40:10.780Z,99060.09
2022-08-01T05:41:14.643Z,99064.25
2022-08-01T05:42:19.279Z,99071.81
2022-08-01T05:43:28.193Z,99074.78
2022-08-01T05:44:33.370Z,99069.47
2022-08-01T05:45:37.798Z,99076.00
2022-08-01T05:46:41.837Z,99073.72
2022-08-01T05:47:45.644Z,99072.63
2022-08-01T05:48:49.638Z,99079.78
2022-08-01T05:49:54.410Z,99073.94
2022-08-01T05:50:59.061Z,99076.88
2022-08-01T05:52:03.622Z,99072.03
2022-08-01T05:53:07.990Z,99073.31
2022-08-01T05:54:12.299Z,99067.47
2022-08-01T05:55:16.314Z,99061.59
2022-08-01T05:56:23.065Z,99077.19
2022-08-01T05:57:28.081Z,99079.88
2022-08-01T05:58:33.774Z,99067.94
2022-08-01T05:59:37.672Z,99073.09
2022-08-01T06:00:41.769Z,99075.31
2022-08-01T06:01:46.162Z,99061.47
2022-08-01T06:02:50.653Z,99068.56
2022-08-01T06:03:55.578Z,99063.75
2022-08-01T06:05:00.265Z,99066.66
2022-08-01T06:06:05.554Z,99067.53
2022-08-01T06:07:09.955Z,99072.72
2022-08-01T06:08:14.143Z,99064.91
2022-08-01T06:09:18.485Z,99063.03
2022-08-01T06:10:22.891Z,99066.06
2022-08-01T06:11:26.640Z,99072.66
2022-08-01T06:12:35.224Z,99066.44
2022-08-01T06:13:44.894Z,99054.84
2022-08-01T06:14:52.771Z,99064.72
2022-08-01T06:15:56.694Z,99074.19
2022-08-01T06:17:00.584Z,99076.34
2022-08-01T06:18:05.962Z,99064.63
2022-08-01T06:19:09.975Z,99076.56
2022-08-01T06:20:13.933Z,99065.81
2022-08-01T06:21:17.815Z,99066.97
2022-08-01T06:22:21.601Z,99067.66
2022-08-01T06:23:32.355Z,99071.84
2022-08-01T06:24:36.711Z,99067.88
2022-08-01T06:25:40.800Z,99073.63
2022-08-01T06:26:44.515Z,99061.50
2022-08-01T06:27:48.639Z,99074.72
2022-08-01T06:28:52.512Z,99071.53
2022-08-01T06:29:56.676Z,99054.50
2022-08-01T06:31:00.836Z,99069.13
2022-08-01T06:32:05.765Z,99074.72
2022-08-01T06:33:10.062Z,99073.56
2022-08-01T06:34:13.884Z,99063.19
2022-08-01T06:35:17.848Z,99079.22
2022-08-01T06:36:21.690Z,99075.47
2022-08-01T06:37:29.379Z,99078.41
2022-08-01T06:38:33.191Z,99074.22
2022-08-01T06:39:37.013Z,99070.50
2022-08-01T06:40:41.011Z,99059.44
2022-08-01T06:41:47.424Z,99077.53
2022-08-01T06:42:51.845Z,99075.09
2022-08-01T06:43:55.721Z,99074.22
2022-08-01T06:44:59.744Z,99084.25
2022-08-01T06:46:03.696Z,99075.13
2022-08-01T06:47:07.608Z,99079.66
2022-08-01T06:48:11.728Z,99074.81
2022-08-01T06:49:15.768Z,99083.22
2022-08-01T06:50:20.403Z,99077.22
2022-08-01T06:51:24.516Z,99074.75
2022-08-01T06:52:29.166Z,99074.19
2022-08-01T06:53:36.582Z,99074.38
2022-08-01T06:54:40.561Z,99074.13
2022-08-01T06:55:45.028Z,99073.28
2022-08-01T06:56:49.033Z,99075.13
2022-08-01T06:57:54.656Z,99072.81
2022-08-01T06:59:02.170Z,99082.63
2022-08-01T07:00:13.617Z,99069.50
2022-08-01T07:01:18.504Z,99067.47
2022-08-01T07:02:23.874Z,99073.19
2022-08-01T07:03:53.605Z,99083.25
2022-08-01T07:04:52.052Z,99076.16
2022-08-01T07:05:55.874Z,99077.00
2022-08-01T07:06:59.982Z,99076.53
2022-08-01T07:08:04.281Z,99073.47
2022-08-01T07:09:12.256Z,99076.03
2022-08-01T07:10:18.674Z,99077.09
2022-08-01T07:11:25.334Z,99082.47
2022-08-01T07:12:29.196Z,99073.72
2022-08-01T07:13:36.666Z,99075.72
2022-08-01T07:14:47.706Z,99077.75
2022-08-01T07:15:52.144Z,99077.22
2022-08-01T07:16:56.049Z,99077.88
2022-08-01T07:18:02.669Z,99078.47
2022-08-01T07:19:06.512Z,99079.50
2022-08-01T07:20:16.128Z,99080.19
2022-08-01T07:21:40.613Z,99074.94
2022-08-01T07:22:47.455Z,99059.81
2022-08-01T07:23:52.022Z,99075.91
2022-08-01T07:24:59.807Z,99071.38
2022-08-01T07:26:05.683Z,99076.41
2022-08-01T07:27:23.936Z,99067.09
2022-08-01T07:28:30.407Z,99055.41
2022-08-01T07:29:34.318Z,99074.94
2022-08-01T07:30:38.429Z,99077.09
2022-08-01T07:31:42.704Z,99079.25
2022-08-01T07:32:46.954Z,99076.44
2022-08-01T07:33:52.124Z,99077.78
2022-08-01T07:34:56.743Z,99077.50
2022-08-01T07:36:02.436Z,99076.50
2022-08-01T07:37:06.563Z,99070.53
2022-08-01T07:38:12.777Z,99069.78
2022-08-01T07:39:17.570Z,99074.31
2022-08-01T07:40:21.938Z,99074.53
2022-08-01T07:41:52.792Z,99071.06
2022-08-01T07:42:49.704Z,99063.50
2022-08-01T07:43:58.721Z,99072.84
2022-08-01T07:45:05.055Z,99070.88
2022-08-01T07:46:09.023Z,99070.16
2022-08-01T07:47:12.948Z,99072.16
2022-08-01T07:48:16.816Z,99074.28
2022-08-01T07:49:22.943Z,99070.50
2022-08-01T07:50:26.970Z,99061.06
2022-08-01T07:51:31.130Z,99066.63
2022-08-01T07:52:35.277Z,99060.47
2022-08-01T07:53:39.061Z,99066.81
2022-08-01T07:54:42.961Z,99066.31
2022-08-01T07:55:46.953Z,99067.28
2022-08-01T07:56:52.211Z,99069.59
2022-08-01T07:57:56.211Z,99065.16
2022-08-01T07:59:00.327Z,99065.63
2022-08-01T08:00:07.540Z,99066.63
2022-08-01T08:01:11.526Z,99060.78
2022-08-01T08:02:15.702Z,99068.06
2022-08-01T08:03:19.641Z,99059.66
2022-08-01T08:04:23.598Z,99065.75
2022-08-01T08:05:58.424Z,99064.91
2022-08-01T08:06:53.427Z,99062.56
2022-08-01T08:07:57.269Z,99057.59
2022-08-01T08:09:01.294Z,99058.25
2022-08-01T08:10:07.144Z,99054.84
2022-08-01T08:11:11.501Z,99060.03
2022-08-01T08:12:15.500Z,99045.09
2022-08-01T08:13:19.619Z,99053.34
2022-08-01T08:14:32.211Z,99053.25
2022-08-01T08:15:36.488Z,99046.97
2022-08-01T08:16:40.678Z,99052.09
2022-08-01T08:17:44.609Z,99040.88
2022-08-01T08:18:58.949Z,99053.88
2022-08-01T08:20:05.308Z,99056.19
2022-08-01T08:21:12.921Z,99049.41
2022-08-01T08:22:16.779Z,99062.88
2022-08-01T08:23:42.749Z,99064.16
2022-08-01T08:24:47.660Z,99053.59
2022-08-01T08:25:51.843Z,99061.19
2022-08-01T08:26:59.069Z,99061.16
2022-08-01T08:28:02.991Z,99050.69
2022-08-01T08:29:08.985Z,99049.25
2022-08-01T08:30:13.348Z,99045.63
2022-08-01T08:31:25.330Z,99052.69
2022-08-01T08:32:40.990Z,99045.75
2022-08-01T08:33:44.749Z,99051.50
2022-08-01T08:34:48.794Z,99049.75
2022-08-01T08:35:55.718Z,99043.91
2022-08-01T08:37:01.069Z,99052.28
2022-08-01T08:38:05.018Z,99047.72
2022-08-01T08:39:11.972Z,99050.44
2022-08-01T08:40:17.368Z,99049.03
2022-08-01T08:41:21.887Z,99047.72
2022-08-01T08:42:26.727Z,99055.78
2022-08-01T08:43:30.536Z,99055.06
2022-08-01T08:44:34.409Z,99053.69
2022-08-01T08:45:58.661Z,99059.63
2022-08-01T08:47:06.463Z,99049.22
2022-08-01T08:48:14.911Z,99053.78
2022-08-01T08:49:23.288Z,99052.59
2022-08-01T08:50:28.813Z,99049.22
2022-08-01T08:51:35.517Z,99051.09
2022-08-01T08:52:41.657Z,99048.28
2022-08-01T08:53:47.987Z,99045.16
2022-08-01T08:54:54.054Z,99044.81
2022-08-01T08:55:59.451Z,99046.84
2022-08-01T08:57:03.458Z,99032.94
2022-08-01T08:58:07.558Z,99044.25
2022-08-01T08:59:15.039Z,99045.00
2022-08-01T09:00:18.957Z,99044.16
2022-08-01T09:01:23.139Z,99044.66
2022-08-01T09:02:27.052Z,99048.66
2022-08-01T09:03:31.410Z,99045.28
2022-08-01T09:04:36.570Z,99040.97
2022-08-01T09:05:40.601Z,99035.69
2022-08-01T09:06:44.544Z,99038.63
2022-08-01T09:07:48.486Z,99041.81
2022-08-01T09:08:52.480Z,99027.06
2022-08-01T09:09:56.367Z,99045.34
2022-08-01T09:11:00.873Z,99043.03
2022-08-01T09:12:05.211Z,99057.31
2022-08-01T09:13:15.671Z,99051.66
2022-08-01T09:14:28.361Z,99046.84
2022-08-01T09:15:56.505Z,99041.31
2022-08-01T09:17:11.959Z,99044.84
2022-08-01T09:18:45.983Z,99047.91
2022-08-01T09:19:59.218Z,99048.97
2022-08-01T09:21:10.746Z,99056.41
2022-08-01T09:22:19.665Z,99049.03
2022-08-01T09:23:55.050Z,99052.69
2022-08-01T09:25:11.883Z,99046.47
2022-08-01T09:26:35.362Z,99049.88
2022-08-01T09:27:44.124Z,99053.72
2022-08-01T09:28:50.274Z,99046.84
2022-08-01T09:30:01.415Z,99043.19
2022-08-01T09:31:12.429Z,99046.16
2022-08-01T09:32:16.665Z,99043.44
2022-08-01T09:33:21.794Z,99044.06
2022-08-01T09:34:32.302Z,99052.34
2022-08-01T09:35:43.711Z,99041.56
2022-08-01T09:36:54.400Z,99038.50
2022-08-01T09:38:28.562Z,99041.97
2022-08-01T09:39:38.733Z,99049.91
2022-08-01T09:40:58.846Z,99044.72
2022-08-01T09:42:21.495Z,99050.44
2022-08-01T09:43:33.363Z,99052.16
2022-08-01T09:44:54.612Z,99051.41
2022-08-01T09:46:01.255Z,99050.16
2022-08-01T09:47:07.763Z,99050.22
2022-08-01T09:48:17.361Z,99046.25
2022-08-01T09:49:50.590Z,99043.56
2022-08-01T09:51:04.041Z,99046.69
2022-08-01T09:52:20.509Z,99044.88
2022-08-01T09:53:51.839Z,99047.75
2022-08-01T09:55:07.438Z,99046.94
2022-08-01T09:56:14.982Z,99045.41
2022-08-01T09:57:21.178Z,99048.69
2022-08-01T09:58:25.325Z,99045.88
2022-08-01T09:59:57.872Z,99049.84
2022-08-01T10:01:05.008Z,99050.28
2022-08-01T10:02:16.799Z,99050.34
2022-08-01T10:03:30.718Z,99050.69
2022-08-01T10:04:35.898Z,99049.09
2022-08-01T10:05:44.152Z,99047.38
2022-08-01T10:07:08.744Z,99045.78
2022-08-01T10:08:13.832Z,99043.34
2022-08-01T10:09:39.689Z,99035.41
2022-08-01T10:11:13.581Z,99048.38
2022-08-01T10:12:27.442Z,99040.88
2022-08-01T10:13:36.348Z,99040.88
2022-08-01T10:14:42.732Z,99027.06
2022-08-01T10:15:50.881Z,99043.41
2022-08-01T10:17:02.826Z,99038.63
2022-08-01T10:18:16.655Z,99038.13
2022-08-01T10:19:31.673Z,99037.22
2022-08-01T10:20:36.425Z,99043.00
2022-08-01T10:21:56.138Z,99041.94
2022-08-01T10:23:06.961Z,99043.50
2022-08-01T10:24:13.530Z,99037.47
2022-08-01T10:25:41.837Z,99042.00
2022-08-01T10:26:48.305Z,99039.41
2022-08-01T10:27:58.029Z,99042.03
2022-08-01T10:29:03.934Z,99044.81
2022-08-01T10:30:29.994Z,99052.19
2022-08-01T10:31:35.499Z,99043.88
2022-08-01T10:32:43.793Z,99038.53
2022-08-01T10:33:55.208Z,99039.81
2022-08-01T10:35:06.698Z,99034.22
2022-08-01T10:36:12.246Z,99039.69
2022-08-01T10:37:18.402Z,99044.59
2022-08-01T10:38:22.544Z,99034.09
2022-08-01T10:39:31.598Z,99046.00
2022-08-01T10:40:39.810Z,99044.59
2022-08-01T10:41:44.468Z,99042.47
2022-08-01T10:42:48.614Z,99038.88
2022-08-01T10:43:53.773Z,99002.47
2022-08-01T10:45:00.221Z,99045.31
2022-08-01T10:46:06.547Z,99038.41
2022-08-01T10:47:17.060Z,99040.06
2022-08-01T10:49:06.023Z,99031.38
2022-08-01T10:50:28.815Z,99039.50
2022-08-01T10:51:52.357Z,99045.09
2022-08-01T10:53:23.842Z,99041.00
2022-08-01T10:54:52.067Z,99039.31
2022-08-01T10:56:04.132Z,99039.56
2022-08-01T10:57:09.114Z,99033.03
2022-08-01T10:58:15.907Z,99039.81
2022-08-01T10:59:49.969Z,99036.50
2022-08-01T11:01:26.536Z,99045.16
2022-08-01T11:02:35.270Z,99042.22
2022-08-01T11:03:56.557Z,99028.75
2022-08-01T11:05:14.311Z,99037.91
2022-08-01T11:06:24.749Z,99030.78
2022-08-01T11:07:53.073Z,99018.88
2022-08-01T11:08:59.467Z,99036.09
2022-08-01T11:10:45.683Z,99034.22
2022-08-01T11:12:06.510Z,99035.41
2022-08-01T11:13:12.442Z,99038.75
2022-08-01T11:14:25.959Z,99036.34
2022-08-01T11:15:31.808Z,99037.16
2022-08-01T11:16:39.244Z,99034.69
2022-08-01T11:17:54.795Z,99030.16
2022-08-01T11:18:59.568Z,99036.84
2022-08-01T11:20:14.689Z,99037.06
2022-08-01T11:21:56.197Z,99043.13
2022-08-01T11:23:02.985Z,99040.41
2022-08-01T11:24:08.306Z,99034.09
2022-08-01T11:25:14.069Z,99037.16
2022-08-01T11:26:29.070Z,99036.75
2022-08-01T11:27:34.440Z,99040.31
2022-08-01T11:28:40.646Z,99033.59
2022-08-01T11:30:13.341Z,99042.66
2022-08-01T11:31:17.512Z,99032.31
2022-08-01T11:32:33.031Z,99025.19
2022-08-01T11:33:50.834Z,99034.16
2022-08-01T11:34:57.484Z,99033.66
2022-08-01T11:36:15.377Z,99025.44
2022-08-01T11:37:31.766Z,99033.16
2022-08-01T11:38:38.745Z,99031.06
2022-08-01T11:39:43.558Z,99024.50
2022-08-01T11:40:47.830Z,99029.97
2022-08-01T11:41:53.807Z,99023.41
2022-08-01T11:43:17.921Z,99027.69
2022-08-01T11:44:28.386Z,99036.63
2022-08-01T11:45:52.337Z,99013.41
2022-08-01T11:47:07.191Z,99026.97
2022-08-01T11:48:29.537Z,99031.59
2022-08-01T11:49:48.765Z,99002.22
2022-08-01T11:50:56.284Z,99025.28
2022-08-01T11:52:30.994Z,99022.19
2022-08-01T11:53:36.704Z,99027.56
2022-08-01T11:54:51.081Z,99024.69
2022-08-01T11:55:56.071Z,99023.38
2022-08-01T11:57:04.405Z,99023.03
2022-08-01T11:58:21.978Z,99023.47
2022-08-01T11:59:27.422Z,99017.56
2022-08-01T12:00:43.891Z,99031.56
2022-08-01T12:01:51.402Z,99023.75
2022-08-01T12:03:08.523Z,99018.50
2022-08-01T12:04:12.419Z,99027.66
2022-08-01T12:05:24.627Z,99021.13
2022-08-01T12:06:31.585Z,99012.44
2022-08-01T12:07:38.193Z,99021.22
2022-08-01T12:08:42.152Z,99017.66
2022-08-01T12:09:47.976Z,99020.19
2022-08-01T12:10:52.215Z,99013.00
2022-08-01T12:12:07.032Z,99015.75
2022-08-01T12:13:11.092Z,99020.28
2022-08-01T12:14:22.138Z,99023.25
2022-08-01T12:15:32.055Z,99029.56
2022-08-01T12:16:35.949Z,99025.53
2022-08-01T12:17:59.683Z,99028.00
2022-08-01T12:19:04.103Z,99025.88
2022-08-01T12:20:12.428Z,99024.44
2022-08-01T12:21:37.261Z,99028.00
2022-08-01T12:22:45.227Z,99013.72
2022-08-01T12:24:03.446Z,99031.44
2022-08-01T12:25:19.240Z,99029.56
2022-08-01T12:26:28.471Z,99031.00
2022-08-01T12:27:38.135Z,99032.88
2022-08-01T12:28:42.107Z,99032.31
2022-08-01T12:29:47.560Z,99029.88
2022-08-01T12:30:51.534Z,99018.34
2022-08-01T12:31:55.736Z,99023.00
2022-08-01T12:32:59.638Z,99028.13
2022-08-01T12:34:30.265Z,99028.94
2022-08-01T12:35:35.367Z,99026.41
2022-08-01T12:36:39.685Z,99022.66
2022-08-01T12:37:49.707Z,99030.72
2022-08-01T12:38:55.176Z,99026.75
2022-08-01T12:40:00.678Z,99032.72
2022-08-01T12:41:05.528Z,99024.97
2022-08-01T12:42:11.759Z,99025.81
2022-08-01T12:43:29.220Z,99022.47
2022-08-01T12:44:34.292Z,99025.81
2022-08-01T12:45:56.841Z,99030.91
2022-08-01T12:47:03.912Z,99028.41
2022-08-01T12:48:15.793Z,99028.00
2022-08-01T12:49:20.382Z,99020.41
2022-08-01T12:50:29.405Z,99017.06
2022-08-01T12:51:33.842Z,99024.19
2022-08-01T12:52:39.292Z,99026.34
2022-08-01T12:53:43.415Z,99016.22
2022-08-01T12:55:25.502Z,99005.88
2022-08-01T12:56:39.016Z,99014.22
2022-08-01T12:57:46.670Z,99014.22
2022-08-01T12:58:50.732Z,99015.16
2022-08-01T13:00:05.852Z,99020.03
2022-08-01T13:01:13.398Z,99009.69
2022-08-01T13:02:17.540Z,99004.81
2022-08-01T13:03:22.565Z,99009.94
2022-08-01T13:04:26.868Z,99022.53
2022-08-01T13:05:46.577Z,99011.25
2022-08-01T13:06:55.624Z,99018.22
2022-08-01T13:08:02.360Z,99019.06
2022-08-01T13:09:14.971Z,99019.91
2022-08-01T13:10:32.350Z,99018.00
2022-08-01T13:11:36.288Z,99016.34
2022-08-01T13:12:42.686Z,99014.66
2022-08-01T13:13:52.967Z,99015.97
2022-08-01T13:14:56.774Z,99014.06
2022-08-01T13:16:12.512Z,99021.44
2022-08-01T13:17:37.196Z,99006.34
2022-08-01T13:18:41.406Z,99015.59
2022-08-01T13:19:48.383Z,99013.06
2022-08-01T13:21:09.597Z,99009.59
2022-08-01T13:22:13.833Z,99005.56
2022-08-01T13:23:23.442Z,99011.72
2022-08-01T13:24:44.855Z,99007.06
2022-08-01T13:25:57.257Z,99016.81
2022-08-01T13:27:05.235Z,99009.06
2022-08-01T13:28:39.542Z,99008.13
2022-08-01T13:29:43.292Z,99011.06
2022-08-01T13:31:08.499Z,99014.69
2022-08-01T13:32:29.316Z,99006.94
2022-08-01T13:33:54.101Z,99011.81
2022-08-01T13:35:08.789Z,99014.78
2022-08-01T13:36:14.414Z,99012.50